sensor_id;sensor_type;location;lat;lon;timestamp;P1;durP1;ratioP1;P2;durP2;ratioP2
9248;SDS011;4660;41.768;26.198;2023-06-19T00:01:17;9.90;;;7.40;;
9248;SDS011;4660;41.768;26.198;2023-06-19T00:03:43;11.98;;;7.03;;
9248;SDS011;4660;41.768;26.198;2023-06-19T00:06:08;7.78;;;7.07;;
9248;SDS011;4660;41.768;26.198;2023-06-19T00:08:34;8.80;;;7.97;;
9248;SDS011;4660;41.768;26.198;2023-06-19T00:11:01;12.98;;;7.93;;
9248;SDS011;4660;41.768;26.198;2023-06-19T00:13:27;13.90;;;8.30;;
9248;SDS011;4660;41.768;26.198;2023-06-19T00:15:52;8.93;;;7.07;;
9248;SDS011;4660;41.768;26.198;2023-06-19T00:18:18;11.77;;;7.78;;
9248;SDS011;4660;41.768;26.198;2023-06-19T00:20:47;9.73;;;7.13;;
9248;SDS011;4660;41.768;26.198;2023-06-19T00:23:53;14.35;;;8.52;;
9248;SDS011;4660;41.768;26.198;2023-06-19T00:26:18;14.23;;;7.65;;
9248;SDS011;4660;41.768;26.198;2023-06-19T00:28:48;9.75;;;7.78;;
9248;SDS011;4660;41.768;26.198;2023-06-19T00:31:14;14.00;;;8.05;;
9248;SDS011;4660;41.768;26.198;2023-06-19T00:33:40;12.00;;;7.68;;
9248;SDS011;4660;41.768;26.198;2023-06-19T00:36:12;12.45;;;8.25;;
9248;SDS011;4660;41.768;26.198;2023-06-19T00:38:39;15.68;;;8.48;;
9248;SDS011;4660;41.768;26.198;2023-06-19T00:41:05;11.18;;;8.07;;
9248;SDS011;4660;41.768;26.198;2023-06-19T00:43:31;15.23;;;8.77;;
9248;SDS011;4660;41.768;26.198;2023-06-19T00:45:57;11.45;;;8.27;;
9248;SDS011;4660;41.768;26.198;2023-06-19T00:48:24;13.73;;;8.57;;
9248;SDS011;4660;41.768;26.198;2023-06-19T00:50:52;11.23;;;8.60;;
9248;SDS011;4660;41.768;26.198;2023-06-19T00:53:17;11.52;;;8.77;;
9248;SDS011;4660;41.768;26.198;2023-06-19T00:55:45;16.13;;;8.80;;
9248;SDS011;4660;41.768;26.198;2023-06-19T00:58:12;10.93;;;8.65;;
9248;SDS011;4660;41.768;26.198;2023-06-19T01:00:38;12.45;;;8.75;;
9248;SDS011;4660;41.768;26.198;2023-06-19T01:03:04;16.73;;;9.48;;
9248;SDS011;4660;41.768;26.198;2023-06-19T01:05:30;9.65;;;8.60;;
9248;SDS011;4660;41.768;26.198;2023-06-19T01:08:00;14.65;;;8.45;;
9248;SDS011;4660;41.768;26.198;2023-06-19T01:10:34;10.50;;;8.27;;
9248;SDS011;4660;41.768;26.198;2023-06-19T01:13:10;12.20;;;8.32;;
9248;SDS011;4660;41.768;26.198;2023-06-19T01:15:41;12.52;;;8.07;;
9248;SDS011;4660;41.768;26.198;2023-06-19T01:18:07;14.60;;;8.55;;
9248;SDS011;4660;41.768;26.198;2023-06-19T01:20:33;9.02;;;7.43;;
9248;SDS011;4660;41.768;26.198;2023-06-19T01:23:08;10.43;;;8.13;;
9248;SDS011;4660;41.768;26.198;2023-06-19T01:25:34;14.10;;;8.02;;
9248;SDS011;4660;41.768;26.198;2023-06-19T01:28:01;10.30;;;7.88;;
9248;SDS011;4660;41.768;26.198;2023-06-19T01:30:31;8.80;;;7.90;;
9248;SDS011;4660;41.768;26.198;2023-06-19T01:33:03;12.10;;;8.32;;
9248;SDS011;4660;41.768;26.198;2023-06-19T01:35:37;9.27;;;7.93;;
9248;SDS011;4660;41.768;26.198;2023-06-19T01:38:05;9.68;;;8.10;;
9248;SDS011;4660;41.768;26.198;2023-06-19T01:40:32;11.38;;;8.60;;
9248;SDS011;4660;41.768;26.198;2023-06-19T01:42:59;12.98;;;8.85;;
9248;SDS011;4660;41.768;26.198;2023-06-19T01:45:29;8.75;;;7.65;;
9248;SDS011;4660;41.768;26.198;2023-06-19T01:47:55;10.82;;;8.30;;
9248;SDS011;4660;41.768;26.198;2023-06-19T01:50:22;11.57;;;7.82;;
9248;SDS011;4660;41.768;26.198;2023-06-19T01:52:49;9.90;;;7.80;;
9248;SDS011;4660;41.768;26.198;2023-06-19T01:55:15;11.38;;;8.13;;
9248;SDS011;4660;41.768;26.198;2023-06-19T01:57:41;12.95;;;8.10;;
9248;SDS011;4660;41.768;26.198;2023-06-19T02:00:07;9.30;;;8.32;;
9248;SDS011;4660;41.768;26.198;2023-06-19T02:02:33;18.23;;;8.55;;
9248;SDS011;4660;41.768;26.198;2023-06-19T02:04:59;10.23;;;8.07;;
9248;SDS011;4660;41.768;26.198;2023-06-19T02:07:24;10.85;;;8.68;;
9248;SDS011;4660;41.768;26.198;2023-06-19T02:09:51;9.70;;;8.80;;
9248;SDS011;4660;41.768;26.198;2023-06-19T02:12:16;9.75;;;8.88;;
9248;SDS011;4660;41.768;26.198;2023-06-19T02:14:42;12.05;;;8.73;;
9248;SDS011;4660;41.768;26.198;2023-06-19T02:17:07;13.70;;;8.32;;
9248;SDS011;4660;41.768;26.198;2023-06-19T02:19:33;13.80;;;9.30;;
9248;SDS011;4660;41.768;26.198;2023-06-19T02:21:58;11.40;;;8.45;;
9248;SDS011;4660;41.768;26.198;2023-06-19T02:24:24;14.50;;;8.30;;
9248;SDS011;4660;41.768;26.198;2023-06-19T02:26:49;12.50;;;8.25;;
9248;SDS011;4660;41.768;26.198;2023-06-19T02:29:15;14.57;;;8.70;;
9248;SDS011;4660;41.768;26.198;2023-06-19T02:31:48;13.80;;;7.80;;
9248;SDS011;4660;41.768;26.198;2023-06-19T02:34:15;8.48;;;7.63;;
9248;SDS011;4660;41.768;26.198;2023-06-19T02:36:41;12.38;;;7.88;;
9248;SDS011;4660;41.768;26.198;2023-06-19T02:39:08;10.45;;;8.30;;
9248;SDS011;4660;41.768;26.198;2023-06-19T02:41:34;9.02;;;8.10;;
9248;SDS011;4660;41.768;26.198;2023-06-19T02:44:00;10.48;;;8.52;;
9248;SDS011;4660;41.768;26.198;2023-06-19T02:46:25;11.50;;;8.70;;
9248;SDS011;4660;41.768;26.198;2023-06-19T02:48:51;8.70;;;7.80;;
9248;SDS011;4660;41.768;26.198;2023-06-19T02:51:17;11.25;;;7.88;;
9248;SDS011;4660;41.768;26.198;2023-06-19T02:53:42;9.07;;;8.23;;
9248;SDS011;4660;41.768;26.198;2023-06-19T02:56:09;11.18;;;7.88;;
9248;SDS011;4660;41.768;26.198;2023-06-19T02:58:36;10.45;;;9.02;;
9248;SDS011;4660;41.768;26.198;2023-06-19T03:01:02;9.15;;;8.23;;
9248;SDS011;4660;41.768;26.198;2023-06-19T03:03:28;10.07;;;8.20;;
9248;SDS011;4660;41.768;26.198;2023-06-19T03:05:54;9.85;;;8.38;;
9248;SDS011;4660;41.768;26.198;2023-06-19T03:08:20;13.15;;;9.75;;
9248;SDS011;4660;41.768;26.198;2023-06-19T03:10:46;9.70;;;8.75;;
9248;SDS011;4660;41.768;26.198;2023-06-19T03:13:12;13.50;;;7.72;;
9248;SDS011;4660;41.768;26.198;2023-06-19T03:15:38;8.88;;;8.02;;
9248;SDS011;4660;41.768;26.198;2023-06-19T03:18:03;11.18;;;8.13;;
9248;SDS011;4660;41.768;26.198;2023-06-19T03:20:32;9.93;;;8.73;;
9248;SDS011;4660;41.768;26.198;2023-06-19T03:22:57;12.95;;;9.25;;
9248;SDS011;4660;41.768;26.198;2023-06-19T03:25:23;10.02;;;9.00;;
9248;SDS011;4660;41.768;26.198;2023-06-19T03:27:49;9.63;;;8.52;;
9248;SDS011;4660;41.768;26.198;2023-06-19T03:30:14;14.02;;;8.25;;
9248;SDS011;4660;41.768;26.198;2023-06-19T03:32:43;8.90;;;8.05;;
9248;SDS011;4660;41.768;26.198;2023-06-19T03:35:09;9.88;;;7.95;;
9248;SDS011;4660;41.768;26.198;2023-06-19T03:37:35;10.43;;;8.52;;
9248;SDS011;4660;41.768;26.198;2023-06-19T03:40:01;12.68;;;8.50;;
9248;SDS011;4660;41.768;26.198;2023-06-19T03:42:28;17.55;;;9.07;;
9248;SDS011;4660;41.768;26.198;2023-06-19T03:44:54;17.55;;;7.97;;
9248;SDS011;4660;41.768;26.198;2023-06-19T03:47:19;13.18;;;8.10;;
9248;SDS011;4660;41.768;26.198;2023-06-19T03:49:45;9.73;;;8.23;;
9248;SDS011;4660;41.768;26.198;2023-06-19T03:52:10;9.05;;;8.15;;
9248;SDS011;4660;41.768;26.198;2023-06-19T03:54:36;10.43;;;9.38;;
9248;SDS011;4660;41.768;26.198;2023-06-19T03:57:01;10.18;;;8.10;;
9248;SDS011;4660;41.768;26.198;2023-06-19T03:59:26;8.15;;;7.45;;
9248;SDS011;4660;41.768;26.198;2023-06-19T04:01:52;10.32;;;9.13;;
9248;SDS011;4660;41.768;26.198;2023-06-19T04:04:18;11.73;;;8.02;;
9248;SDS011;4660;41.768;26.198;2023-06-19T04:06:43;10.68;;;8.60;;
9248;SDS011;4660;41.768;26.198;2023-06-19T04:09:09;11.70;;;9.05;;
9248;SDS011;4660;41.768;26.198;2023-06-19T04:11:34;8.82;;;7.57;;
9248;SDS011;4660;41.768;26.198;2023-06-19T04:14:00;8.70;;;7.85;;
9248;SDS011;4660;41.768;26.198;2023-06-19T04:16:25;10.48;;;7.82;;
9248;SDS011;4660;41.768;26.198;2023-06-19T04:18:51;9.55;;;8.52;;
9248;SDS011;4660;41.768;26.198;2023-06-19T04:21:16;9.27;;;8.20;;
9248;SDS011;4660;41.768;26.198;2023-06-19T04:23:42;8.98;;;7.93;;
9248;SDS011;4660;41.768;26.198;2023-06-19T04:26:08;12.20;;;9.02;;
9248;SDS011;4660;41.768;26.198;2023-06-19T04:28:33;9.27;;;8.05;;
9248;SDS011;4660;41.768;26.198;2023-06-19T04:30:59;8.23;;;7.53;;
9248;SDS011;4660;41.768;26.198;2023-06-19T04:33:26;8.77;;;7.97;;
9248;SDS011;4660;41.768;26.198;2023-06-19T04:35:56;10.43;;;7.68;;
9248;SDS011;4660;41.768;26.198;2023-06-19T04:38:21;11.63;;;8.00;;
9248;SDS011;4660;41.768;26.198;2023-06-19T04:40:52;8.27;;;7.50;;
9248;SDS011;4660;41.768;26.198;2023-06-19T04:43:18;12.27;;;7.38;;
9248;SDS011;4660;41.768;26.198;2023-06-19T04:45:44;10.45;;;7.65;;
9248;SDS011;4660;41.768;26.198;2023-06-19T04:48:13;8.90;;;8.00;;
9248;SDS011;4660;41.768;26.198;2023-06-19T04:50:38;10.60;;;7.80;;
9248;SDS011;4660;41.768;26.198;2023-06-19T04:53:04;9.13;;;8.05;;
9248;SDS011;4660;41.768;26.198;2023-06-19T04:55:29;8.88;;;7.97;;
9248;SDS011;4660;41.768;26.198;2023-06-19T04:57:55;8.07;;;7.38;;
9248;SDS011;4660;41.768;26.198;2023-06-19T05:00:21;8.35;;;7.43;;
9248;SDS011;4660;41.768;26.198;2023-06-19T05:02:48;9.40;;;7.50;;
9248;SDS011;4660;41.768;26.198;2023-06-19T05:05:15;8.30;;;7.47;;
9248;SDS011;4660;41.768;26.198;2023-06-19T05:07:41;9.75;;;7.13;;
9248;SDS011;4660;41.768;26.198;2023-06-19T05:10:10;11.95;;;7.75;;
9248;SDS011;4660;41.768;26.198;2023-06-19T05:12:36;6.88;;;6.28;;
9248;SDS011;4660;41.768;26.198;2023-06-19T05:15:01;7.03;;;6.40;;
9248;SDS011;4660;41.768;26.198;2023-06-19T05:17:27;11.20;;;7.55;;
9248;SDS011;4660;41.768;26.198;2023-06-19T05:19:53;11.48;;;7.20;;
9248;SDS011;4660;41.768;26.198;2023-06-19T05:22:18;8.93;;;7.65;;
9248;SDS011;4660;41.768;26.198;2023-06-19T05:24:46;8.23;;;6.88;;
9248;SDS011;4660;41.768;26.198;2023-06-19T05:27:12;7.25;;;6.43;;
9248;SDS011;4660;41.768;26.198;2023-06-19T05:29:37;8.45;;;6.88;;
9248;SDS011;4660;41.768;26.198;2023-06-19T05:32:03;8.18;;;6.97;;
9248;SDS011;4660;41.768;26.198;2023-06-19T05:34:29;8.57;;;7.25;;
9248;SDS011;4660;41.768;26.198;2023-06-19T05:36:54;8.40;;;7.50;;
9248;SDS011;4660;41.768;26.198;2023-06-19T05:39:20;8.15;;;6.00;;
9248;SDS011;4660;41.768;26.198;2023-06-19T05:41:46;12.20;;;5.95;;
9248;SDS011;4660;41.768;26.198;2023-06-19T05:44:11;8.48;;;6.50;;
9248;SDS011;4660;41.768;26.198;2023-06-19T05:46:42;8.77;;;6.88;;
9248;SDS011;4660;41.768;26.198;2023-06-19T05:49:08;7.05;;;6.45;;
9248;SDS011;4660;41.768;26.198;2023-06-19T05:51:33;7.00;;;6.38;;
9248;SDS011;4660;41.768;26.198;2023-06-19T05:53:59;5.65;;;5.15;;
9248;SDS011;4660;41.768;26.198;2023-06-19T05:56:31;6.35;;;5.82;;
9248;SDS011;4660;41.768;26.198;2023-06-19T05:59:01;6.60;;;6.00;;
9248;SDS011;4660;41.768;26.198;2023-06-19T06:01:28;7.03;;;6.10;;
9248;SDS011;4660;41.768;26.198;2023-06-19T06:03:55;7.50;;;5.18;;
9248;SDS011;4660;41.768;26.198;2023-06-19T06:06:22;7.05;;;5.70;;
9248;SDS011;4660;41.768;26.198;2023-06-19T06:08:48;6.30;;;5.72;;
9248;SDS011;4660;41.768;26.198;2023-06-19T06:11:14;11.55;;;5.93;;
9248;SDS011;4660;41.768;26.198;2023-06-19T06:13:40;11.02;;;6.10;;
9248;SDS011;4660;41.768;26.198;2023-06-19T06:16:05;5.82;;;5.32;;
9248;SDS011;4660;41.768;26.198;2023-06-19T06:18:31;6.70;;;6.10;;
9248;SDS011;4660;41.768;26.198;2023-06-19T06:20:56;7.00;;;5.07;;
9248;SDS011;4660;41.768;26.198;2023-06-19T06:23:24;7.15;;;6.40;;
9248;SDS011;4660;41.768;26.198;2023-06-19T06:25:50;7.65;;;5.75;;
9248;SDS011;4660;41.768;26.198;2023-06-19T06:28:15;6.03;;;5.43;;
9248;SDS011;4660;41.768;26.198;2023-06-19T06:30:42;7.43;;;5.80;;
9248;SDS011;4660;41.768;26.198;2023-06-19T06:33:08;7.05;;;6.03;;
9248;SDS011;4660;41.768;26.198;2023-06-19T06:35:34;11.23;;;6.03;;
9248;SDS011;4660;41.768;26.198;2023-06-19T06:38:01;7.45;;;6.30;;
9248;SDS011;4660;41.768;26.198;2023-06-19T06:40:27;8.02;;;6.53;;
9248;SDS011;4660;41.768;26.198;2023-06-19T06:42:53;8.73;;;6.22;;
9248;SDS011;4660;41.768;26.198;2023-06-19T06:45:19;7.68;;;6.35;;
9248;SDS011;4660;41.768;26.198;2023-06-19T06:47:45;6.25;;;5.40;;
9248;SDS011;4660;41.768;26.198;2023-06-19T06:50:10;8.57;;;6.65;;
9248;SDS011;4660;41.768;26.198;2023-06-19T06:52:36;6.30;;;5.70;;
9248;SDS011;4660;41.768;26.198;2023-06-19T06:55:03;6.28;;;5.78;;
9248;SDS011;4660;41.768;26.198;2023-06-19T06:57:29;6.70;;;6.10;;
9248;SDS011;4660;41.768;26.198;2023-06-19T06:59:54;7.35;;;5.80;;
9248;SDS011;4660;41.768;26.198;2023-06-19T07:02:20;7.25;;;5.95;;
9248;SDS011;4660;41.768;26.198;2023-06-19T07:04:45;6.10;;;5.47;;
9248;SDS011;4660;41.768;26.198;2023-06-19T07:07:11;6.30;;;5.70;;
9248;SDS011;4660;41.768;26.198;2023-06-19T07:09:36;7.10;;;5.60;;
9248;SDS011;4660;41.768;26.198;2023-06-19T07:12:02;6.25;;;5.07;;
9248;SDS011;4660;41.768;26.198;2023-06-19T07:14:30;10.25;;;5.72;;
9248;SDS011;4660;41.768;26.198;2023-06-19T07:16:56;6.97;;;5.82;;
9248;SDS011;4660;41.768;26.198;2023-06-19T07:19:21;5.68;;;5.13;;
9248;SDS011;4660;41.768;26.198;2023-06-19T07:21:47;5.88;;;5.38;;
9248;SDS011;4660;41.768;26.198;2023-06-19T07:24:18;5.22;;;4.72;;
9248;SDS011;4660;41.768;26.198;2023-06-19T07:26:45;9.13;;;5.22;;
9248;SDS011;4660;41.768;26.198;2023-06-19T07:29:12;8.57;;;5.15;;
9248;SDS011;4660;41.768;26.198;2023-06-19T07:31:37;6.25;;;5.63;;
9248;SDS011;4660;41.768;26.198;2023-06-19T07:34:03;7.47;;;4.95;;
9248;SDS011;4660;41.768;26.198;2023-06-19T07:36:29;6.50;;;5.20;;
9248;SDS011;4660;41.768;26.198;2023-06-19T07:38:54;5.25;;;4.57;;
9248;SDS011;4660;41.768;26.198;2023-06-19T07:41:20;6.22;;;5.10;;
9248;SDS011;4660;41.768;26.198;2023-06-19T07:43:45;5.38;;;4.97;;
9248;SDS011;4660;41.768;26.198;2023-06-19T07:46:12;5.50;;;4.97;;
9248;SDS011;4660;41.768;26.198;2023-06-19T07:48:38;5.50;;;4.93;;
9248;SDS011;4660;41.768;26.198;2023-06-19T07:51:03;5.18;;;4.78;;
9248;SDS011;4660;41.768;26.198;2023-06-19T07:53:29;5.65;;;4.57;;
9248;SDS011;4660;41.768;26.198;2023-06-19T07:55:56;5.07;;;4.60;;
9248;SDS011;4660;41.768;26.198;2023-06-19T07:58:22;5.57;;;4.45;;
9248;SDS011;4660;41.768;26.198;2023-06-19T08:00:48;5.28;;;4.78;;
9248;SDS011;4660;41.768;26.198;2023-06-19T08:03:17;8.63;;;5.38;;
9248;SDS011;4660;41.768;26.198;2023-06-19T08:05:43;5.97;;;4.88;;
9248;SDS011;4660;41.768;26.198;2023-06-19T08:08:08;5.35;;;4.63;;
9248;SDS011;4660;41.768;26.198;2023-06-19T08:10:34;5.40;;;4.72;;
9248;SDS011;4660;41.768;26.198;2023-06-19T08:13:00;5.90;;;5.30;;
9248;SDS011;4660;41.768;26.198;2023-06-19T08:15:25;5.88;;;5.00;;
9248;SDS011;4660;41.768;26.198;2023-06-19T08:17:51;6.03;;;4.82;;
9248;SDS011;4660;41.768;26.198;2023-06-19T08:20:17;5.53;;;4.95;;
9248;SDS011;4660;41.768;26.198;2023-06-19T08:22:45;5.55;;;5.00;;
9248;SDS011;4660;41.768;26.198;2023-06-19T08:25:10;5.60;;;5.10;;
9248;SDS011;4660;41.768;26.198;2023-06-19T08:27:36;6.10;;;5.25;;
9248;SDS011;4660;41.768;26.198;2023-06-19T08:30:02;6.55;;;4.82;;
9248;SDS011;4660;41.768;26.198;2023-06-19T08:32:29;5.47;;;4.97;;
9248;SDS011;4660;41.768;26.198;2023-06-19T08:34:56;5.82;;;4.97;;
9248;SDS011;4660;41.768;26.198;2023-06-19T08:37:22;5.68;;;5.18;;
9248;SDS011;4660;41.768;26.198;2023-06-19T08:39:48;6.18;;;5.57;;
9248;SDS011;4660;41.768;26.198;2023-06-19T08:42:14;6.95;;;5.25;;
9248;SDS011;4660;41.768;26.198;2023-06-19T08:44:42;5.68;;;5.18;;
9248;SDS011;4660;41.768;26.198;2023-06-19T08:47:08;6.40;;;5.03;;
9248;SDS011;4660;41.768;26.198;2023-06-19T08:49:35;6.65;;;4.88;;
9248;SDS011;4660;41.768;26.198;2023-06-19T08:52:03;5.25;;;4.85;;
9248;SDS011;4660;41.768;26.198;2023-06-19T08:54:46;5.50;;;4.97;;
9248;SDS011;4660;41.768;26.198;2023-06-19T08:57:12;5.70;;;5.25;;
9248;SDS011;4660;41.768;26.198;2023-06-19T08:59:37;6.35;;;5.40;;
9248;SDS011;4660;41.768;26.198;2023-06-19T09:02:03;5.47;;;4.97;;
9248;SDS011;4660;41.768;26.198;2023-06-19T09:04:29;5.38;;;4.93;;
9248;SDS011;4660;41.768;26.198;2023-06-19T09:06:57;8.05;;;5.75;;
9248;SDS011;4660;41.768;26.198;2023-06-19T09:09:29;6.25;;;5.65;;
9248;SDS011;4660;41.768;26.198;2023-06-19T09:12:01;7.97;;;5.53;;
9248;SDS011;4660;41.768;26.198;2023-06-19T09:14:38;6.47;;;4.90;;
9248;SDS011;4660;41.768;26.198;2023-06-19T09:17:13;5.18;;;4.70;;
9248;SDS011;4660;41.768;26.198;2023-06-19T09:19:50;7.75;;;4.82;;
9248;SDS011;4660;41.768;26.198;2023-06-19T09:22:17;6.05;;;4.72;;
9248;SDS011;4660;41.768;26.198;2023-06-19T09:24:45;7.30;;;4.72;;
9248;SDS011;4660;41.768;26.198;2023-06-19T09:27:16;4.82;;;4.30;;
9248;SDS011;4660;41.768;26.198;2023-06-19T09:29:45;7.30;;;5.38;;
9248;SDS011;4660;41.768;26.198;2023-06-19T09:34:43;5.22;;;3.85;;
9248;SDS011;4660;41.768;26.198;2023-06-19T09:37:11;4.70;;;4.07;;
9248;SDS011;4660;41.768;26.198;2023-06-19T09:39:38;4.78;;;4.10;;
9248;SDS011;4660;41.768;26.198;2023-06-19T09:42:08;6.20;;;4.50;;
9248;SDS011;4660;41.768;26.198;2023-06-19T09:44:41;5.32;;;3.67;;
9248;SDS011;4660;41.768;26.198;2023-06-19T09:49:42;5.43;;;3.95;;
9248;SDS011;4660;41.768;26.198;2023-06-19T09:52:16;3.95;;;3.55;;
9248;SDS011;4660;41.768;26.198;2023-06-19T09:54:55;8.68;;;3.97;;
9248;SDS011;4660;41.768;26.198;2023-06-19T09:57:23;7.63;;;5.03;;
9248;SDS011;4660;41.768;26.198;2023-06-19T09:59:52;8.85;;;4.90;;
9248;SDS011;4660;41.768;26.198;2023-06-19T10:02:21;10.35;;;5.22;;
9248;SDS011;4660;41.768;26.198;2023-06-19T10:04:55;9.02;;;4.78;;
9248;SDS011;4660;41.768;26.198;2023-06-19T10:07:25;6.78;;;5.22;;
9248;SDS011;4660;41.768;26.198;2023-06-19T10:10:07;8.55;;;5.10;;
9248;SDS011;4660;41.768;26.198;2023-06-19T10:12:41;8.98;;;5.43;;
9248;SDS011;4660;41.768;26.198;2023-06-19T10:15:09;8.20;;;5.13;;
9248;SDS011;4660;41.768;26.198;2023-06-19T10:17:42;8.68;;;5.15;;
9248;SDS011;4660;41.768;26.198;2023-06-19T10:25:33;6.93;;;4.90;;
9248;SDS011;4660;41.768;26.198;2023-06-19T10:28:03;6.85;;;4.50;;
9248;SDS011;4660;41.768;26.198;2023-06-19T10:30:33;5.40;;;4.90;;
9248;SDS011;4660;41.768;26.198;2023-06-19T10:32:59;5.15;;;4.65;;
9248;SDS011;4660;41.768;26.198;2023-06-19T10:35:28;6.45;;;4.57;;
9248;SDS011;4660;41.768;26.198;2023-06-19T10:37:53;4.63;;;4.22;;
9248;SDS011;4660;41.768;26.198;2023-06-19T10:40:19;12.40;;;4.72;;
9248;SDS011;4660;41.768;26.198;2023-06-19T10:42:45;6.57;;;4.28;;
9248;SDS011;4660;41.768;26.198;2023-06-19T10:45:12;4.57;;;4.18;;
9248;SDS011;4660;41.768;26.198;2023-06-19T10:47:42;4.03;;;3.58;;
9248;SDS011;4660;41.768;26.198;2023-06-19T10:50:14;4.80;;;4.30;;
9248;SDS011;4660;41.768;26.198;2023-06-19T10:52:44;6.30;;;4.20;;
9248;SDS011;4660;41.768;26.198;2023-06-19T10:55:11;5.47;;;3.65;;
9248;SDS011;4660;41.768;26.198;2023-06-19T10:57:46;5.63;;;4.00;;
9248;SDS011;4660;41.768;26.198;2023-06-19T11:00:22;4.28;;;3.88;;
9248;SDS011;4660;41.768;26.198;2023-06-19T11:02:55;3.35;;;2.90;;
9248;SDS011;4660;41.768;26.198;2023-06-19T11:05:22;4.72;;;3.42;;
9248;SDS011;4660;41.768;26.198;2023-06-19T11:07:52;3.50;;;3.20;;
9248;SDS011;4660;41.768;26.198;2023-06-19T11:10:23;4.85;;;3.35;;
9248;SDS011;4660;41.768;26.198;2023-06-19T11:12:54;3.55;;;3.25;;
9248;SDS011;4660;41.768;26.198;2023-06-19T11:15:31;4.70;;;3.30;;
9248;SDS011;4660;41.768;26.198;2023-06-19T11:17:57;4.88;;;3.17;;
9248;SDS011;4660;41.768;26.198;2023-06-19T11:20:24;4.78;;;3.13;;
9248;SDS011;4660;41.768;26.198;2023-06-19T11:22:54;4.50;;;3.20;;
9248;SDS011;4660;41.768;26.198;2023-06-19T11:25:22;3.20;;;3.00;;
9248;SDS011;4660;41.768;26.198;2023-06-19T11:27:52;4.10;;;3.45;;
9248;SDS011;4660;41.768;26.198;2023-06-19T11:30:29;6.20;;;3.20;;
9248;SDS011;4660;41.768;26.198;2023-06-19T11:32:56;3.95;;;3.65;;
9248;SDS011;4660;41.768;26.198;2023-06-19T11:35:24;3.50;;;3.20;;
9248;SDS011;4660;41.768;26.198;2023-06-19T11:37:50;4.95;;;3.83;;
9248;SDS011;4660;41.768;26.198;2023-06-19T11:40:17;4.25;;;3.30;;
9248;SDS011;4660;41.768;26.198;2023-06-19T11:42:48;3.47;;;2.97;;
9248;SDS011;4660;41.768;26.198;2023-06-19T11:45:16;7.30;;;3.75;;
9248;SDS011;4660;41.768;26.198;2023-06-19T11:47:45;4.65;;;3.95;;
9248;SDS011;4660;41.768;26.198;2023-06-19T11:50:12;4.82;;;3.00;;
9248;SDS011;4660;41.768;26.198;2023-06-19T11:52:44;3.80;;;3.28;;
9248;SDS011;4660;41.768;26.198;2023-06-19T11:55:13;3.45;;;3.15;;
9248;SDS011;4660;41.768;26.198;2023-06-19T11:57:39;5.22;;;3.53;;
9248;SDS011;4660;41.768;26.198;2023-06-19T12:00:12;3.17;;;2.97;;
9248;SDS011;4660;41.768;26.198;2023-06-19T12:02:41;4.20;;;3.22;;
9248;SDS011;4660;41.768;26.198;2023-06-19T12:05:09;3.97;;;3.00;;
9248;SDS011;4660;41.768;26.198;2023-06-19T12:07:35;4.10;;;3.35;;
9248;SDS011;4660;41.768;26.198;2023-06-19T12:10:02;3.25;;;2.95;;
9248;SDS011;4660;41.768;26.198;2023-06-19T12:12:28;4.32;;;3.28;;
9248;SDS011;4660;41.768;26.198;2023-06-19T12:14:55;3.25;;;2.97;;
9248;SDS011;4660;41.768;26.198;2023-06-19T12:17:21;3.50;;;3.15;;
9248;SDS011;4660;41.768;26.198;2023-06-19T12:19:47;3.55;;;3.22;;
9248;SDS011;4660;41.768;26.198;2023-06-19T12:22:13;3.58;;;3.28;;
9248;SDS011;4660;41.768;26.198;2023-06-19T12:24:40;3.53;;;3.17;;
9248;SDS011;4660;41.768;26.198;2023-06-19T12:27:06;4.60;;;3.33;;
9248;SDS011;4660;41.768;26.198;2023-06-19T12:29:32;3.55;;;3.10;;
9248;SDS011;4660;41.768;26.198;2023-06-19T12:32:01;3.03;;;2.78;;
9248;SDS011;4660;41.768;26.198;2023-06-19T12:37:15;6.88;;;3.05;;
9248;SDS011;4660;41.768;26.198;2023-06-19T12:39:44;4.70;;;2.95;;
9248;SDS011;4660;41.768;26.198;2023-06-19T12:42:10;4.28;;;2.80;;
9248;SDS011;4660;41.768;26.198;2023-06-19T12:44:42;3.80;;;3.42;;
9248;SDS011;4660;41.768;26.198;2023-06-19T12:47:10;3.53;;;3.22;;
9248;SDS011;4660;41.768;26.198;2023-06-19T12:49:37;3.38;;;3.08;;
9248;SDS011;4660;41.768;26.198;2023-06-19T12:54:37;4.78;;;3.40;;
9248;SDS011;4660;41.768;26.198;2023-06-19T12:57:07;3.33;;;3.08;;
9248;SDS011;4660;41.768;26.198;2023-06-19T12:59:34;4.18;;;3.40;;
9248;SDS011;4660;41.768;26.198;2023-06-19T13:02:11;6.47;;;2.95;;
9248;SDS011;4660;41.768;26.198;2023-06-19T13:04:37;5.03;;;3.22;;
9248;SDS011;4660;41.768;26.198;2023-06-19T13:07:03;3.00;;;2.78;;
9248;SDS011;4660;41.768;26.198;2023-06-19T13:09:32;6.22;;;3.05;;
9248;SDS011;4660;41.768;26.198;2023-06-19T13:11:58;6.22;;;3.35;;
9248;SDS011;4660;41.768;26.198;2023-06-19T13:14:27;3.70;;;3.20;;
9248;SDS011;4660;41.768;26.198;2023-06-19T13:17:05;3.88;;;2.72;;
9248;SDS011;4660;41.768;26.198;2023-06-19T13:19:35;3.28;;;2.83;;
9248;SDS011;4660;41.768;26.198;2023-06-19T13:24:40;3.55;;;3.20;;
9248;SDS011;4660;41.768;26.198;2023-06-19T13:27:08;5.10;;;3.58;;
9248;SDS011;4660;41.768;26.198;2023-06-19T13:29:35;4.60;;;3.50;;
9248;SDS011;4660;41.768;26.198;2023-06-19T13:32:23;3.80;;;3.50;;
9248;SDS011;4660;41.768;26.198;2023-06-19T13:34:51;3.55;;;3.25;;
9248;SDS011;4660;41.768;26.198;2023-06-19T13:37:19;3.88;;;3.40;;
9248;SDS011;4660;41.768;26.198;2023-06-19T13:39:47;5.30;;;3.78;;
9248;SDS011;4660;41.768;26.198;2023-06-19T13:42:16;5.18;;;3.38;;
9248;SDS011;4660;41.768;26.198;2023-06-19T13:44:44;4.63;;;3.00;;
9248;SDS011;4660;41.768;26.198;2023-06-19T13:47:14;3.80;;;3.35;;
9248;SDS011;4660;41.768;26.198;2023-06-19T13:49:54;3.42;;;3.13;;
9248;SDS011;4660;41.768;26.198;2023-06-19T13:52:20;3.45;;;3.20;;
9248;SDS011;4660;41.768;26.198;2023-06-19T13:55:14;3.67;;;3.25;;
9248;SDS011;4660;41.768;26.198;2023-06-19T13:57:50;9.88;;;6.97;;
9248;SDS011;4660;41.768;26.198;2023-06-19T14:00:41;6.47;;;3.03;;
9248;SDS011;4660;41.768;26.198;2023-06-19T14:03:13;3.00;;;2.70;;
9248;SDS011;4660;41.768;26.198;2023-06-19T14:05:40;3.90;;;2.40;;
9248;SDS011;4660;41.768;26.198;2023-06-19T14:08:21;3.72;;;2.85;;
9248;SDS011;4660;41.768;26.198;2023-06-19T14:10:56;3.25;;;2.78;;
9248;SDS011;4660;41.768;26.198;2023-06-19T14:13:42;2.65;;;2.45;;
9248;SDS011;4660;41.768;26.198;2023-06-19T14:16:11;3.85;;;3.10;;
9248;SDS011;4660;41.768;26.198;2023-06-19T14:18:36;3.88;;;3.00;;
9248;SDS011;4660;41.768;26.198;2023-06-19T14:21:03;3.13;;;2.83;;
9248;SDS011;4660;41.768;26.198;2023-06-19T14:23:29;4.35;;;3.10;;
9248;SDS011;4660;41.768;26.198;2023-06-19T14:25:54;4.40;;;3.17;;
9248;SDS011;4660;41.768;26.198;2023-06-19T14:28:20;4.05;;;3.13;;
9248;SDS011;4660;41.768;26.198;2023-06-19T14:30:48;5.35;;;3.30;;
9248;SDS011;4660;41.768;26.198;2023-06-19T14:33:17;3.70;;;3.40;;
9248;SDS011;4660;41.768;26.198;2023-06-19T14:35:42;4.45;;;3.10;;
9248;SDS011;4660;41.768;26.198;2023-06-19T14:38:14;3.80;;;2.83;;
9248;SDS011;4660;41.768;26.198;2023-06-19T14:40:40;6.80;;;6.10;;
9248;SDS011;4660;41.768;26.198;2023-06-19T14:43:06;5.38;;;4.90;;
9248;SDS011;4660;41.768;26.198;2023-06-19T14:45:34;9.18;;;3.67;;
9248;SDS011;4660;41.768;26.198;2023-06-19T14:48:03;5.35;;;3.53;;
9248;SDS011;4660;41.768;26.198;2023-06-19T14:50:31;2.97;;;2.78;;
9248;SDS011;4660;41.768;26.198;2023-06-19T14:53:00;3.08;;;2.78;;
9248;SDS011;4660;41.768;26.198;2023-06-19T14:55:25;3.88;;;2.88;;
9248;SDS011;4660;41.768;26.198;2023-06-19T14:57:51;5.00;;;3.65;;
9248;SDS011;4660;41.768;26.198;2023-06-19T15:00:17;4.78;;;3.03;;
9248;SDS011;4660;41.768;26.198;2023-06-19T15:02:42;3.50;;;3.20;;
9248;SDS011;4660;41.768;26.198;2023-06-19T15:05:08;3.78;;;3.30;;
9248;SDS011;4660;41.768;26.198;2023-06-19T15:07:34;4.45;;;2.90;;
9248;SDS011;4660;41.768;26.198;2023-06-19T15:09:59;3.83;;;3.40;;
9248;SDS011;4660;41.768;26.198;2023-06-19T15:12:29;3.38;;;3.08;;
9248;SDS011;4660;41.768;26.198;2023-06-19T15:14:57;4.40;;;3.47;;
9248;SDS011;4660;41.768;26.198;2023-06-19T15:17:23;3.45;;;3.15;;
9248;SDS011;4660;41.768;26.198;2023-06-19T15:19:48;3.55;;;2.88;;